sensor_id;sensor_type;location;lat;lon;timestamp;pressure;altitude;pressure_sealevel;temperature;humidity
43147;BME280;28752;48.266;7.402;2023-01-19T00:02:22;98483.06;;;-1.98;95.32
43147;BME280;28752;48.266;7.402;2023-01-19T00:04:47;98488.06;;;-1.94;95.24
43147;BME280;28752;48.266;7.402;2023-01-19T00:07:14;98483.25;;;-2.01;95.92
43147;BME280;28752;48.266;7.402;2023-01-19T00:09:39;98483.44;;;-2.04;96.00
43147;BME280;28752;48.266;7.402;2023-01-19T00:12:05;98477.50;;;-2.06;96.14
43147;BME280;28752;48.266;7.402;2023-01-19T00:14:30;98488.78;;;-2.07;96.06
43147;BME280;28752;48.266;7.402;2023-01-19T00:16:56;98477.69;;;-2.09;96.17
43147;BME280;28752;48.266;7.402;2023-01-19T00:19:21;98481.47;;;-2.15;96.30
43147;BME280;28752;48.266;7.402;2023-01-19T00:21:47;98471.28;;;-2.18;96.19
43147;BME280;28752;48.266;7.402;2023-01-19T00:24:12;98469.59;;;-2.19;96.50
43147;BME280;28752;48.266;7.402;2023-01-19T00:26:39;98482.78;;;-2.07;96.52
43147;BME280;28752;48.266;7.402;2023-01-19T00:29:05;98487.97;;;-2.07;96.62
43147;BME280;28752;48.266;7.402;2023-01-19T00:31:32;98488.44;;;-2.01;97.02
43147;BME280;28752;48.266;7.402;2023-01-19T00:33:58;98491.03;;;-2.01;96.94
43147;BME280;28752;48.266;7.402;2023-01-19T00:36:24;98496.41;;;-2.04;97.05
43147;BME280;28752;48.266;7.402;2023-01-19T00:38:49;98498.16;;;-2.04;96.93
43147;BME280;28752;48.266;7.402;2023-01-19T00:41:15;98496.03;;;-1.98;95.91
43147;BME280;28752;48.266;7.402;2023-01-19T00:43:40;98500.41;;;-1.98;95.45
43147;BME280;28752;48.266;7.402;2023-01-19T00:46:06;98493.06;;;-2.06;95.54
43147;BME280;28752;48.266;7.402;2023-01-19T00:48:31;98497.25;;;-2.03;95.61
43147;BME280;28752;48.266;7.402;2023-01-19T00:50:57;98499.00;;;-2.04;95.94
43147;BME280;28752;48.266;7.402;2023-01-19T00:53:24;98508.06;;;-2.11;96.52
43147;BME280;28752;48.266;7.402;2023-01-19T00:55:49;98511.31;;;-2.07;96.45
43147;BME280;28752;48.266;7.402;2023-01-19T00:58:14;98513.84;;;-2.22;96.69
43147;BME280;28752;48.266;7.402;2023-01-19T01:00:40;98517.88;;;-2.16;96.55
43147;BME280;28752;48.266;7.402;2023-01-19T01:03:05;98512.84;;;-2.19;96.09
43147;BME280;28752;48.266;7.402;2023-01-19T01:05:31;98515.34;;;-2.18;96.09
43147;BME280;28752;48.266;7.402;2023-01-19T01:07:56;98511.09;;;-2.19;96.11
43147;BME280;28752;48.266;7.402;2023-01-19T01:10:25;98500.06;;;-2.22;95.54
43147;BME280;28752;48.266;7.402;2023-01-19T01:12:53;98509.88;;;-2.27;95.73
43147;BME280;28752;48.266;7.402;2023-01-19T01:15:19;98503.34;;;-2.35;95.89
43147;BME280;28752;48.266;7.402;2023-01-19T01:17:45;98514.47;;;-2.33;96.47
43147;BME280;28752;48.266;7.402;2023-01-19T01:20:23;98516.81;;;-2.28;96.03
43147;BME280;28752;48.266;7.402;2023-01-19T01:22:51;98522.66;;;-2.24;96.05
43147;BME280;28752;48.266;7.402;2023-01-19T01:25:19;98522.66;;;-2.24;96.65
43147;BME280;28752;48.266;7.402;2023-01-19T01:27:46;98520.47;;;-2.16;97.39
43147;BME280;28752;48.266;7.402;2023-01-19T01:30:13;98521.38;;;-2.17;97.17
43147;BME280;28752;48.266;7.402;2023-01-19T01:32:39;98524.72;;;-2.15;97.38
43147;BME280;28752;48.266;7.402;2023-01-19T01:35:05;98523.19;;;-2.03;96.84
43147;BME280;28752;48.266;7.402;2023-01-19T01:37:30;98529.50;;;-1.93;96.29
43147;BME280;28752;48.266;7.402;2023-01-19T01:39:56;98530.13;;;-2.04;96.55
43147;BME280;28752;48.266;7.402;2023-01-19T01:42:27;98530.81;;;-2.00;96.67
43147;BME280;28752;48.266;7.402;2023-01-19T01:44:55;98524.56;;;-1.98;96.03
43147;BME280;28752;48.266;7.402;2023-01-19T01:47:43;98531.53;;;-1.98;95.49
43147;BME280;28752;48.266;7.402;2023-01-19T01:50:12;98538.69;;;-1.87;95.95
43147;BME280;28752;48.266;7.402;2023-01-19T01:52:44;98532.59;;;-1.86;95.36
43147;BME280;28752;48.266;7.402;2023-01-19T01:55:10;98528.25;;;-1.71;95.25
43147;BME280;28752;48.266;7.402;2023-01-19T01:57:42;98526.88;;;-1.63;94.90
43147;BME280;28752;48.266;7.402;2023-01-19T02:00:09;98531.31;;;-1.65;94.64
43147;BME280;28752;48.266;7.402;2023-01-19T02:02:36;98532.09;;;-1.48;94.09
43147;BME280;28752;48.266;7.402;2023-01-19T02:07:58;98523.28;;;-1.31;93.78
43147;BME280;28752;48.266;7.402;2023-01-19T02:10:45;98533.56;;;-1.30;93.04
43147;BME280;28752;48.266;7.402;2023-01-19T02:13:32;98536.44;;;-1.34;93.18
43147;BME280;28752;48.266;7.402;2023-01-19T02:16:00;98516.13;;;-1.42;93.24
43147;BME280;28752;48.266;7.402;2023-01-19T02:18:28;98528.75;;;-1.36;93.58
43147;BME280;28752;48.266;7.402;2023-01-19T02:21:29;98525.88;;;-1.31;93.27
43147;BME280;28752;48.266;7.402;2023-01-19T02:23:57;98531.97;;;-1.32;93.50
43147;BME280;28752;48.266;7.402;2023-01-19T02:26:26;98521.50;;;-1.31;93.10
43147;BME280;28752;48.266;7.402;2023-01-19T02:28:59;98488.50;;;-1.57;92.83
43147;BME280;28752;48.266;7.402;2023-01-19T02:31:26;98511.97;;;-1.59;93.49
43147;BME280;28752;48.266;7.402;2023-01-19T02:33:53;98518.66;;;-1.55;93.93
43147;BME280;28752;48.266;7.402;2023-01-19T02:36:22;98534.78;;;-1.50;94.20
43147;BME280;28752;48.266;7.402;2023-01-19T02:38:49;98528.28;;;-1.42;93.58
43147;BME280;28752;48.266;7.402;2023-01-19T02:41:19;98519.00;;;-1.47;92.88
43147;BME280;28752;48.266;7.402;2023-01-19T02:43:47;98511.78;;;-1.56;93.21
43147;BME280;28752;48.266;7.402;2023-01-19T02:46:14;98526.16;;;-1.50;94.02
43147;BME280;28752;48.266;7.402;2023-01-19T02:48:40;98526.63;;;-1.44;93.81
43147;BME280;28752;48.266;7.402;2023-01-19T02:51:22;98536.19;;;-1.44;93.84
43147;BME280;28752;48.266;7.402;2023-01-19T02:56:34;98534.03;;;-1.37;93.27
43147;BME280;28752;48.266;7.402;2023-01-19T02:59:11;98537.19;;;-1.47;93.93
43147;BME280;28752;48.266;7.402;2023-01-19T03:06:54;98532.09;;;-1.48;93.74
43147;BME280;28752;48.266;7.402;2023-01-19T03:12:14;98528.34;;;-1.58;93.61
43147;BME280;28752;48.266;7.402;2023-01-19T03:14:47;98522.44;;;-1.61;93.21
43147;BME280;28752;48.266;7.402;2023-01-19T03:17:16;98520.00;;;-1.78;93.81
43147;BME280;28752;48.266;7.402;2023-01-19T03:19:43;98513.56;;;-1.87;94.11
43147;BME280;28752;48.266;7.402;2023-01-19T03:22:16;98534.28;;;-1.85;94.41
43147;BME280;28752;48.266;7.402;2023-01-19T03:24:44;98533.31;;;-1.99;94.63
43147;BME280;28752;48.266;7.402;2023-01-19T03:27:14;98533.03;;;-1.94;94.38
43147;BME280;28752;48.266;7.402;2023-01-19T03:29:49;98537.00;;;-1.88;94.20
43147;BME280;28752;48.266;7.402;2023-01-19T03:32:17;98526.91;;;-1.93;94.11
43147;BME280;28752;48.266;7.402;2023-01-19T03:34:48;98534.78;;;-1.94;94.31
43147;BME280;28752;48.266;7.402;2023-01-19T03:37:15;98541.09;;;-1.84;94.07
43147;BME280;28752;48.266;7.402;2023-01-19T03:39:42;98520.53;;;-1.87;93.76
43147;BME280;28752;48.266;7.402;2023-01-19T03:42:11;98529.22;;;-1.88;94.38
43147;BME280;28752;48.266;7.402;2023-01-19T03:44:39;98542.34;;;-1.75;93.85
43147;BME280;28752;48.266;7.402;2023-01-19T03:47:07;98534.47;;;-1.74;93.61
43147;BME280;28752;48.266;7.402;2023-01-19T03:49:35;98508.38;;;-1.87;93.32
43147;BME280;28752;48.266;7.402;2023-01-19T03:52:02;98520.34;;;-1.84;93.66
43147;BME280;28752;48.266;7.402;2023-01-19T03:54:27;98541.59;;;-1.77;93.52
43147;BME280;28752;48.266;7.402;2023-01-19T03:56:53;98548.25;;;-1.73;93.18
43147;BME280;28752;48.266;7.402;2023-01-19T03:59:18;98553.28;;;-1.70;92.96
43147;BME280;28752;48.266;7.402;2023-01-19T04:01:46;98557.56;;;-1.69;92.96
43147;BME280;28752;48.266;7.402;2023-01-19T04:04:12;98550.69;;;-1.70;93.00
43147;BME280;28752;48.266;7.402;2023-01-19T04:06:38;98546.44;;;-1.71;92.96
43147;BME280;28752;48.266;7.402;2023-01-19T04:09:03;98552.91;;;-1.64;93.00
43147;BME280;28752;48.266;7.402;2023-01-19T04:11:28;98559.34;;;-1.55;92.85
43147;BME280;28752;48.266;7.402;2023-01-19T04:13:54;98553.69;;;-1.62;92.69
43147;BME280;28752;48.266;7.402;2023-01-19T04:16:19;98567.97;;;-1.55;92.65
43147;BME280;28752;48.266;7.402;2023-01-19T04:18:45;98565.84;;;-1.48;91.69
43147;BME280;28752;48.266;7.402;2023-01-19T04:21:11;98570.28;;;-1.50;91.85
43147;BME280;28752;48.266;7.402;2023-01-19T04:23:36;98566.66;;;-1.48;91.60
43147;BME280;28752;48.266;7.402;2023-01-19T04:26:06;98568.72;;;-1.53;91.79
43147;BME280;28752;48.266;7.402;2023-01-19T04:28:34;98571.94;;;-1.49;91.77
43147;BME280;28752;48.266;7.402;2023-01-19T04:31:01;98576.78;;;-1.57;91.73
43147;BME280;28752;48.266;7.402;2023-01-19T04:33:27;98574.44;;;-1.48;91.95
43147;BME280;28752;48.266;7.402;2023-01-19T04:35:53;98583.38;;;-1.52;91.79
43147;BME280;28752;48.266;7.402;2023-01-19T04:38:20;98574.53;;;-1.64;92.11
43147;BME280;28752;48.266;7.402;2023-01-19T04:40:47;98579.38;;;-1.57;92.29
43147;BME280;28752;48.266;7.402;2023-01-19T04:43:13;98584.34;;;-1.69;92.70
43147;BME280;28752;48.266;7.402;2023-01-19T04:45:38;98573.66;;;-1.79;92.93
43147;BME280;28752;48.266;7.402;2023-01-19T04:48:03;98577.16;;;-1.80;93.69
43147;BME280;28752;48.266;7.402;2023-01-19T04:50:30;98572.84;;;-1.79;93.92
43147;BME280;28752;48.266;7.402;2023-01-19T04:52:58;98575.63;;;-1.82;93.59
43147;BME280;28752;48.266;7.402;2023-01-19T04:55:23;98580.91;;;-1.84;93.03
43147;BME280;28752;48.266;7.402;2023-01-19T04:57:49;98572.75;;;-1.77;92.42
43147;BME280;28752;48.266;7.402;2023-01-19T05:00:14;98577.53;;;-1.86;92.52
43147;BME280;28752;48.266;7.402;2023-01-19T05:02:40;98572.53;;;-1.89;92.61
43147;BME280;28752;48.266;7.402;2023-01-19T05:05:09;98571.19;;;-1.96;92.67
43147;BME280;28752;48.266;7.402;2023-01-19T05:07:36;98578.06;;;-1.95;92.40
43147;BME280;28752;48.266;7.402;2023-01-19T05:10:01;98563.19;;;-2.07;92.63
43147;BME280;28752;48.266;7.402;2023-01-19T05:12:27;98582.59;;;-1.99;92.77
43147;BME280;28752;48.266;7.402;2023-01-19T05:14:52;98572.25;;;-2.15;92.52
43147;BME280;28752;48.266;7.402;2023-01-19T05:17:18;98576.59;;;-2.15;92.26
43147;BME280;28752;48.266;7.402;2023-01-19T05:19:43;98586.94;;;-1.99;92.25
43147;BME280;28752;48.266;7.402;2023-01-19T05:22:08;98581.63;;;-2.12;92.08
43147;BME280;28752;48.266;7.402;2023-01-19T05:24:34;98581.63;;;-2.12;92.23
43147;BME280;28752;48.266;7.402;2023-01-19T05:27:00;98575.34;;;-2.08;92.47
43147;BME280;28752;48.266;7.402;2023-01-19T05:29:26;98574.63;;;-2.26;92.59
43147;BME280;28752;48.266;7.402;2023-01-19T05:31:51;98578.78;;;-2.23;92.38
43147;BME280;28752;48.266;7.402;2023-01-19T05:34:16;98573.75;;;-2.26;93.01
43147;BME280;28752;48.266;7.402;2023-01-19T05:36:42;98555.22;;;-2.35;92.64
43147;BME280;28752;48.266;7.402;2023-01-19T05:39:07;98560.09;;;-2.44;92.71
43147;BME280;28752;48.266;7.402;2023-01-19T05:41:33;98580.81;;;-2.28;92.50
43147;BME280;28752;48.266;7.402;2023-01-19T05:43:58;98581.97;;;-2.18;91.92
43147;BME280;28752;48.266;7.402;2023-01-19T05:46:24;98594.00;;;-2.17;91.78
43147;BME280;28752;48.266;7.402;2023-01-19T05:48:49;98582.75;;;-2.32;92.20
43147;BME280;28752;48.266;7.402;2023-01-19T05:51:15;98593.50;;;-2.24;92.44
43147;BME280;28752;48.266;7.402;2023-01-19T05:53:40;98594.94;;;-2.18;91.99
43147;BME280;28752;48.266;7.402;2023-01-19T05:56:07;98589.66;;;-2.33;92.03
43147;BME280;28752;48.266;7.402;2023-01-19T05:58:34;98588.00;;;-2.34;92.25
43147;BME280;28752;48.266;7.402;2023-01-19T06:01:04;98600.72;;;-2.29;92.21
43147;BME280;28752;48.266;7.402;2023-01-19T06:03:30;98586.56;;;-2.23;92.50
43147;BME280;28752;48.266;7.402;2023-01-19T06:05:57;98591.84;;;-2.25;92.25
43147;BME280;28752;48.266;7.402;2023-01-19T06:08:22;98593.34;;;-2.21;92.13
43147;BME280;28752;48.266;7.402;2023-01-19T06:10:47;98599.34;;;-2.20;92.18
43147;BME280;28752;48.266;7.402;2023-01-19T06:13:13;98600.47;;;-2.24;92.09
43147;BME280;28752;48.266;7.402;2023-01-19T06:15:38;98593.97;;;-2.01;90.81
43147;BME280;28752;48.266;7.402;2023-01-19T06:18:04;98608.63;;;-2.00;91.14
43147;BME280;28752;48.266;7.402;2023-01-19T06:20:29;98611.88;;;-1.97;90.80
43147;BME280;28752;48.266;7.402;2023-01-19T06:22:57;98605.19;;;-2.01;90.68
43147;BME280;28752;48.266;7.402;2023-01-19T06:25:22;98606.44;;;-1.92;90.74
43147;BME280;28752;48.266;7.402;2023-01-19T06:27:49;98614.47;;;-1.97;90.63
43147;BME280;28752;48.266;7.402;2023-01-19T06:30:14;98612.06;;;-2.00;90.58
43147;BME280;28752;48.266;7.402;2023-01-19T06:32:41;98613.72;;;-1.99;90.75
43147;BME280;28752;48.266;7.402;2023-01-19T06:35:06;98609.06;;;-2.08;91.13
43147;BME280;28752;48.266;7.402;2023-01-19T06:37:32;98629.78;;;-1.92;91.10
43147;BME280;28752;48.266;7.402;2023-01-19T06:39:58;98621.19;;;-2.08;90.99
43147;BME280;28752;48.266;7.402;2023-01-19T06:42:23;98627.47;;;-2.12;91.02
43147;BME280;28752;48.266;7.402;2023-01-19T06:44:48;98630.31;;;-2.01;90.68
43147;BME280;28752;48.266;7.402;2023-01-19T06:47:14;98628.44;;;-1.99;90.43
43147;BME280;28752;48.266;7.402;2023-01-19T06:49:40;98637.47;;;-1.90;90.42
43147;BME280;28752;48.266;7.402;2023-01-19T06:52:08;98648.19;;;-1.81;90.56
43147;BME280;28752;48.266;7.402;2023-01-19T06:54:34;98647.50;;;-1.84;90.65
43147;BME280;28752;48.266;7.402;2023-01-19T06:56:59;98653.22;;;-1.77;90.45
43147;BME280;28752;48.266;7.402;2023-01-19T06:59:24;98650.16;;;-1.70;90.84
43147;BME280;28752;48.266;7.402;2023-01-19T07:01:50;98651.88;;;-1.85;90.23
43147;BME280;28752;48.266;7.402;2023-01-19T07:04:15;98639.91;;;-1.87;90.52
43147;BME280;28752;48.266;7.402;2023-01-19T07:06:40;98643.75;;;-1.94;90.35
43147;BME280;28752;48.266;7.402;2023-01-19T07:09:06;98662.47;;;-1.73;90.27
43147;BME280;28752;48.266;7.402;2023-01-19T07:11:34;98661.16;;;-1.81;90.01
43147;BME280;28752;48.266;7.402;2023-01-19T07:14:00;98657.88;;;-1.84;90.34
43147;BME280;28752;48.266;7.402;2023-01-19T07:16:28;98663.31;;;-1.73;90.22
43147;BME280;28752;48.266;7.402;2023-01-19T07:18:54;98663.97;;;-1.69;91.07
43147;BME280;28752;48.266;7.402;2023-01-19T07:21:19;98663.72;;;-1.65;91.34
43147;BME280;28752;48.266;7.402;2023-01-19T07:23:49;98654.84;;;-1.61;91.34
43147;BME280;28752;48.266;7.402;2023-01-19T07:26:15;98663.94;;;-1.53;90.43
43147;BME280;28752;48.266;7.402;2023-01-19T07:28:45;98667.91;;;-1.62;90.54
43147;BME280;28752;48.266;7.402;2023-01-19T07:31:11;98671.97;;;-1.58;90.41
43147;BME280;28752;48.266;7.402;2023-01-19T07:33:36;98672.56;;;-1.53;90.36
43147;BME280;28752;48.266;7.402;2023-01-19T07:36:01;98662.03;;;-1.66;90.37
43147;BME280;28752;48.266;7.402;2023-01-19T07:38:27;98660.69;;;-1.57;89.71
43147;BME280;28752;48.266;7.402;2023-01-19T07:41:02;98660.31;;;-1.51;89.82
43147;BME280;28752;48.266;7.402;2023-01-19T07:43:27;98653.28;;;-1.49;89.33
43147;BME280;28752;48.266;7.402;2023-01-19T07:45:57;98668.59;;;-1.44;89.73
43147;BME280;28752;48.266;7.402;2023-01-19T07:48:22;98667.84;;;-1.46;89.78
43147;BME280;28752;48.266;7.402;2023-01-19T07:50:47;98655.03;;;-1.49;90.08
43147;BME280;28752;48.266;7.402;2023-01-19T07:53:13;98664.16;;;-1.42;89.77
43147;BME280;28752;48.266;7.402;2023-01-19T07:55:38;98672.53;;;-1.22;89.31
43147;BME280;28752;48.266;7.402;2023-01-19T07:58:04;98665.66;;;-1.23;89.34
43147;BME280;28752;48.266;7.402;2023-01-19T08:00:31;98668.56;;;-1.14;89.19
43147;BME280;28752;48.266;7.402;2023-01-19T08:02:58;98661.16;;;-1.05;88.80
43147;BME280;28752;48.266;7.402;2023-01-19T08:05:24;98669.06;;;-0.93;88.26
43147;BME280;28752;48.266;7.402;2023-01-19T08:07:50;98669.25;;;-0.81;87.29
43147;BME280;28752;48.266;7.402;2023-01-19T08:10:15;98664.41;;;-0.87;87.51
43147;BME280;28752;48.266;7.402;2023-01-19T08:12:41;98663.59;;;-0.88;88.07
43147;BME280;28752;48.266;7.402;2023-01-19T08:15:08;98666.38;;;-0.77;87.87
43147;BME280;28752;48.266;7.402;2023-01-19T08:17:33;98671.72;;;-0.65;87.16
43147;BME280;28752;48.266;7.402;2023-01-19T08:19:59;98681.13;;;-0.63;86.25
43147;BME280;28752;48.266;7.402;2023-01-19T08:22:24;98671.56;;;-0.77;85.88
43147;BME280;28752;48.266;7.402;2023-01-19T08:24:50;98674.25;;;-0.64;85.84
43147;BME280;28752;48.266;7.402;2023-01-19T08:27:16;98678.63;;;-0.50;85.97
43147;BME280;28752;48.266;7.402;2023-01-19T08:29:41;98684.34;;;-0.30;84.35
43147;BME280;28752;48.266;7.402;2023-01-19T08:32:07;98685.72;;;-0.25;84.85
43147;BME280;28752;48.266;7.402;2023-01-19T08:34:32;98683.41;;;-0.15;84.30
43147;BME280;28752;48.266;7.402;2023-01-19T08:36:57;98693.41;;;-0.09;84.31
43147;BME280;28752;48.266;7.402;2023-01-19T08:39:23;98675.31;;;-0.10;84.14
43147;BME280;28752;48.266;7.402;2023-01-19T08:41:49;98684.59;;;-0.21;84.08
43147;BME280;28752;48.266;7.402;2023-01-19T08:44:15;98687.94;;;-0.19;83.92
43147;BME280;28752;48.266;7.402;2023-01-19T08:46:41;98693.41;;;-0.09;84.37
43147;BME280;28752;48.266;7.402;2023-01-19T08:49:06;98693.41;;;-0.09;84.88
43147;BME280;28752;48.266;7.402;2023-01-19T08:51:32;98702.03;;;0.06;83.68
43147;BME280;28752;48.266;7.402;2023-01-19T08:53:58;98703.47;;;0.10;83.95
43147;BME280;28752;48.266;7.402;2023-01-19T08:56:23;98678.63;;;-0.08;84.01
43147;BME280;28752;48.266;7.402;2023-01-19T08:58:48;98714.25;;;0.19;84.09
43147;BME280;28752;48.266;7.402;2023-01-19T09:01:14;98711.00;;;0.15;84.56
43147;BME280;28752;48.266;7.402;2023-01-19T09:03:41;98713.66;;;0.28;83.66
43147;BME280;28752;48.266;7.402;2023-01-19T09:06:07;98702.50;;;0.26;83.62
43147;BME280;28752;48.266;7.402;2023-01-19T09:08:32;98716.47;;;0.25;83.76
43147;BME280;28752;48.266;7.402;2023-01-19T09:10:58;98700.84;;;0.25;82.97
43147;BME280;28752;48.266;7.402;2023-01-19T09:13:23;98713.38;;;0.32;83.37
43147;BME280;28752;48.266;7.402;2023-01-19T09:15:49;98725.22;;;0.51;82.89
43147;BME280;28752;48.266;7.402;2023-01-19T09:18:17;98721.03;;;0.48;83.10
43147;BME280;28752;48.266;7.402;2023-01-19T09:20:45;98706.94;;;0.38;83.18
43147;BME280;28752;48.266;7.402;2023-01-19T09:23:13;98713.75;;;0.53;82.82
43147;BME280;28752;48.266;7.402;2023-01-19T09:25:40;98717.09;;;0.56;82.53
43147;BME280;28752;48.266;7.402;2023-01-19T09:28:07;98728.09;;;0.74;81.78
43147;BME280;28752;48.266;7.402;2023-01-19T09:30:34;98721.66;;;0.92;81.55
43147;BME280;28752;48.266;7.402;2023-01-19T09:33:12;98723.53;;;1.03;80.87
43147;BME280;28752;48.266;7.402;2023-01-19T09:35:38;98719.28;;;1.02;80.04
43147;BME280;28752;48.266;7.402;2023-01-19T09:38:04;98723.97;;;1.10;79.98
43147;BME280;28752;48.266;7.402;2023-01-19T09:40:31;98718.44;;;1.14;79.65
43147;BME280;28752;48.266;7.402;2023-01-19T09:46:08;98731.28;;;1.17;79.64
43147;BME280;28752;48.266;7.402;2023-01-19T09:51:15;98727.13;;;1.28;79.30
43147;BME280;28752;48.266;7.402;2023-01-19T09:53:54;98726.06;;;1.43;79.34
43147;BME280;28752;48.266;7.402;2023-01-19T09:56:21;98735.75;;;1.54;78.96
43147;BME280;28752;48.266;7.402;2023-01-19T09:58:47;98733.84;;;1.82;78.69
43147;BME280;28752;48.266;7.402;2023-01-19T10:06:51;98736.41;;;2.31;75.46
43147;BME280;28752;48.266;7.402;2023-01-19T10:11:56;98732.56;;;2.24;75.99
43147;BME280;28752;48.266;7.402;2023-01-19T10:14:37;98726.31;;;2.27;75.92
43147;BME280;28752;48.266;7.402;2023-01-19T10:17:16;98722.78;;;2.39;76.00
43147;BME280;28752;48.266;7.402;2023-01-19T10:19:48;98730.16;;;2.58;75.82
43147;BME280;28752;48.266;7.402;2023-01-19T10:22:22;98722.56;;;2.66;75.26
43147;BME280;28752;48.266;7.402;2023-01-19T10:24:55;98727.78;;;2.66;75.87
43147;BME280;28752;48.266;7.402;2023-01-19T10:27:26;98716.97;;;2.60;75.54
43147;BME280;28752;48.266;7.402;2023-01-19T10:29:52;98712.34;;;2.75;75.71
43147;BME280;28752;48.266;7.402;2023-01-19T10:32:27;98714.78;;;2.89;74.29
43147;BME280;28752;48.266;7.402;2023-01-19T10:34:55;98708.97;;;2.86;74.41
43147;BME280;28752;48.266;7.402;2023-01-19T10:37:38;98715.19;;;2.72;74.45
43147;BME280;28752;48.266;7.402;2023-01-19T10:42:35;98714.97;;;2.75;74.60
43147;BME280;28752;48.266;7.402;2023-01-19T10:45:01;98707.88;;;2.77;74.68
43147;BME280;28752;48.266;7.402;2023-01-19T10:47:34;98723.69;;;2.87;74.67
43147;BME280;28752;48.266;7.402;2023-01-19T10:50:21;98718.28;;;3.01;73.79
43147;BME280;28752;48.266;7.402;2023-01-19T10:52:53;98726.00;;;3.02;73.63
43147;BME280;28752;48.266;7.402;2023-01-19T10:55:28;98719.97;;;3.13;73.68
43147;BME280;28752;48.266;7.402;2023-01-19T10:57:56;98724.25;;;3.14;73.05
43147;BME280;28752;48.266;7.402;2023-01-19T11:00:36;98727.66;;;2.92;73.87
43147;BME280;28752;48.266;7.402;2023-01-19T11:03:26;98716.94;;;2.84;74.13
43147;BME280;28752;48.266;7.402;2023-01-19T11:05:48;98706.25;;;2.87;73.83
43147;BME280;28752;48.266;7.402;2023-01-19T11:08:28;98717.22;;;2.68;74.19
43147;BME280;28752;48.266;7.402;2023-01-19T11:10:58;98699.84;;;2.56;74.67
43147;BME280;28752;48.266;7.402;2023-01-19T11:13:26;98708.78;;;2.64;74.89
43147;BME280;28752;48.266;7.402;2023-01-19T11:18:29;98713.09;;;2.77;75.54
43147;BME280;28752;48.266;7.402;2023-01-19T11:20:58;98700.88;;;2.53;76.05
43147;BME280;28752;48.266;7.402;2023-01-19T11:23:40;98701.53;;;2.68;75.51
43147;BME280;28752;48.266;7.402;2023-01-19T11:26:14;98695.66;;;2.53;75.74
43147;BME280;28752;48.266;7.402;2023-01-19T11:28:47;98696.75;;;2.62;75.86
43147;BME280;28752;48.266;7.402;2023-01-19T11:33:49;98702.91;;;2.49;77.36
43147;BME280;28752;48.266;7.402;2023-01-19T11:38:47;98690.72;;;2.37;77.95
43147;BME280;28752;48.266;7.402;2023-01-19T11:43:44;98698.72;;;2.47;78.53
43147;BME280;28752;48.266;7.402;2023-01-19T11:46:11;98685.44;;;2.50;78.69
43147;BME280;28752;48.266;7.402;2023-01-19T11:48:58;98693.34;;;2.73;77.40
43147;BME280;28752;48.266;7.402;2023-01-19T11:51:57;98690.91;;;2.82;76.44
43147;BME280;28752;48.266;7.402;2023-01-19T11:54:31;98677.59;;;2.86;76.32
43147;BME280;28752;48.266;7.402;2023-01-19T11:56:59;98683.19;;;2.92;76.13
43147;BME280;28752;48.266;7.402;2023-01-19T11:59:24;98671.91;;;2.92;76.03
43147;BME280;28752;48.266;7.402;2023-01-19T12:01:56;98684.63;;;3.08;76.13
43147;BME280;28752;48.266;7.402;2023-01-19T12:04:29;98680.25;;;3.19;75.93
43147;BME280;28752;48.266;7.402;2023-01-19T12:06:58;98671.69;;;3.29;75.96
43147;BME280;28752;48.266;7.402;2023-01-19T12:09:29;98667.53;;;3.26;76.23
43147;BME280;28752;48.266;7.402;2023-01-19T12:12:11;98678.13;;;3.36;75.54
43147;BME280;28752;48.266;7.402;2023-01-19T12:15:01;98673.97;;;3.33;76.58
43147;BME280;28752;48.266;7.402;2023-01-19T12:17:42;98661.47;;;3.26;75.15
43147;BME280;28752;48.266;7.402;2023-01-19T12:22:47;98668.75;;;3.22;74.95
43147;BME280;28752;48.266;7.402;2023-01-19T12:27:45;98664.09;;;3.26;74.77
43147;BME280;28752;48.266;7.402;2023-01-19T12:30:24;98673.97;;;3.33;75.18
43147;BME280;28752;48.266;7.402;2023-01-19T12:32:51;98673.97;;;3.33;75.57
43147;BME280;28752;48.266;7.402;2023-01-19T12:38:49;98663.25;;;3.36;75.24
43147;BME280;28752;48.266;7.402;2023-01-19T12:51:43;98668.72;;;3.56;74.66
43147;BME280;28752;48.266;7.402;2023-01-19T12:54:39;98646.72;;;3.47;74.97
43147;BME280;28752;48.266;7.402;2023-01-19T12:57:16;98659.69;;;3.60;74.56
43147;BME280;28752;48.266;7.402;2023-01-19T12:59:43;98655.28;;;3.61;74.85
43147;BME280;28752;48.266;7.402;2023-01-19T13:13:37;98658.13;;;3.69;74.07
43147;BME280;28752;48.266;7.402;2023-01-19T13:18:52;98658.97;;;3.69;73.54
43147;BME280;28752;48.266;7.402;2023-01-19T13:21:37;98652.66;;;3.72;74.00
43147;BME280;28752;48.266;7.402;2023-01-19T13:24:10;98660.16;;;3.65;74.74
43147;BME280;28752;48.266;7.402;2023-01-19T13:26:39;98650.97;;;3.60;75.29
43147;BME280;28752;48.266;7.402;2023-01-19T13:29:38;98662.19;;;3.62;75.69
43147;BME280;28752;48.266;7.402;2023-01-19T13:32:12;98651.94;;;3.47;75.80
43147;BME280;28752;48.266;7.402;2023-01-19T13:34:45;98661.72;;;3.45;76.97
43147;BME280;28752;48.266;7.402;2023-01-19T13:37:16;98641.72;;;3.22;77.88
43147;BME280;28752;48.266;7.402;2023-01-19T13:39:44;98660.41;;;3.28;77.66
43147;BME280;28752;48.266;7.402;2023-01-19T13:42:17;98657.19;;;3.25;78.57
43147;BME280;28752;48.266;7.402;2023-01-19T13:44:47;98662.41;;;3.13;78.16
43147;BME280;28752;48.266;7.402;2023-01-19T13:47:28;98666.31;;;3.08;78.33
43147;BME280;28752;48.266;7.402;2023-01-19T13:49:59;98643.50;;;2.98;78.38
43147;BME280;28752;48.266;7.402;2023-01-19T13:52:27;98666.59;;;3.16;78.26
43147;BME280;28752;48.266;7.402;2023-01-19T13:57:30;98672.63;;;3.05;79.22
43147;BME280;28752;48.266;7.402;2023-01-19T14:02:36;98669.41;;;3.01;78.30
43147;BME280;28752;48.266;7.402;2023-01-19T14:05:15;98666.44;;;2.95;78.63
43147;BME280;28752;48.266;7.402;2023-01-19T14:07:44;98664.66;;;2.95;79.22
43147;BME280;28752;48.266;7.402;2023-01-19T14:10:14;98676.19;;;3.04;79.01
43147;BME280;28752;48.266;7.402;2023-01-19T14:12:42;98670.47;;;2.99;79.38
43147;BME280;28752;48.266;7.402;2023-01-19T14:15:11;98673.09;;;2.99;80.22
43147;BME280;28752;48.266;7.402;2023-01-19T14:17:39;98676.78;;;2.96;80.46
43147;BME280;28752;48.266;7.402;2023-01-19T14:20:05;98673.81;;;3.01;80.50
43147;BME280;28752;48.266;7.402;2023-01-19T14:22:41;98673.09;;;2.99;80.73
43147;BME280;28752;48.266;7.402;2023-01-19T14:28:27;98670.63;;;3.09;80.43
43147;BME280;28752;48.266;7.402;2023-01-19T14:30:56;98673.44;;;2.94;79.84
43147;BME280;28752;48.266;7.402;2023-01-19T14:33:41;98671.41;;;2.87;80.66
43147;BME280;28752;48.266;7.402;2023-01-19T14:36:32;98674.41;;;2.93;80.46